sensor_id;sensor_type;location;lat;lon;timestamp;temperature;humidity
78315;SHT31;67569;52.080;4.662;2023-02-11T00:00:32;7.20;84.37
78315;SHT31;67569;52.080;4.662;2023-02-11T00:03:16;7.23;84.40
78315;SHT31;67569;52.080;4.662;2023-02-11T00:06:02;7.23;84.38
78315;SHT31;67569;52.080;4.662;2023-02-11T00:08:46;7.20;84.41
78315;SHT31;67569;52.080;4.662;2023-02-11T00:11:30;7.20;84.43
78315;SHT31;67569;52.080;4.662;2023-02-11T00:14:14;7.22;84.37
78315;SHT31;67569;52.080;4.662;2023-02-11T00:16:58;7.24;84.36
78315;SHT31;67569;52.080;4.662;2023-02-11T00:19:48;7.26;84.33
78315;SHT31;67569;52.080;4.662;2023-02-11T00:22:32;7.24;84.41
78315;SHT31;67569;52.080;4.662;2023-02-11T00:25:16;7.27;84.43
78315;SHT31;67569;52.080;4.662;2023-02-11T00:28:00;7.23;84.39
78315;SHT31;67569;52.080;4.662;2023-02-11T00:30:44;7.28;84.31
78315;SHT31;67569;52.080;4.662;2023-02-11T00:33:28;7.26;84.35
78315;SHT31;67569;52.080;4.662;2023-02-11T00:36:16;7.23;84.39
78315;SHT31;67569;52.080;4.662;2023-02-11T00:39:04;7.23;84.43
78315;SHT31;67569;52.080;4.662;2023-02-11T00:41:48;7.22;84.46
78315;SHT31;67569;52.080;4.662;2023-02-11T00:44:36;7.20;84.52
78315;SHT31;67569;52.080;4.662;2023-02-11T00:47:19;7.22;84.51
78315;SHT31;67569;52.080;4.662;2023-02-11T00:50:04;7.22;84.63
78315;SHT31;67569;52.080;4.662;2023-02-11T00:52:48;7.22;84.70
78315;SHT31;67569;52.080;4.662;2023-02-11T00:55:32;7.20;84.69
78315;SHT31;67569;52.080;4.662;2023-02-11T00:58:16;7.22;84.66
78315;SHT31;67569;52.080;4.662;2023-02-11T01:01:00;7.22;84.55
78315;SHT31;67569;52.080;4.662;2023-02-11T01:03:43;7.26;84.53
78315;SHT31;67569;52.080;4.662;2023-02-11T01:06:28;7.24;84.47
78315;SHT31;67569;52.080;4.662;2023-02-11T01:09:15;7.27;84.44
78315;SHT31;67569;52.080;4.662;2023-02-11T01:11:58;7.28;84.35
78315;SHT31;67569;52.080;4.662;2023-02-11T01:14:43;7.27;84.34
78315;SHT31;67569;52.080;4.662;2023-02-11T01:17:26;7.31;84.30
78315;SHT31;67569;52.080;4.662;2023-02-11T01:20:13;7.36;84.15
78315;SHT31;67569;52.080;4.662;2023-02-11T01:22:57;7.34;84.08
78315;SHT31;67569;52.080;4.662;2023-02-11T01:25:41;7.34;84.00
78315;SHT31;67569;52.080;4.662;2023-02-11T01:28:25;7.31;84.04
78315;SHT31;67569;52.080;4.662;2023-02-11T01:31:10;7.28;84.06
78315;SHT31;67569;52.080;4.662;2023-02-11T01:33:54;7.26;84.12
78315;SHT31;67569;52.080;4.662;2023-02-11T01:36:38;7.24;84.11
78315;SHT31;67569;52.080;4.662;2023-02-11T01:39:22;7.22;84.10
78315;SHT31;67569;52.080;4.662;2023-02-11T01:42:06;7.20;84.15
78315;SHT31;67569;52.080;4.662;2023-02-11T01:44:51;7.16;84.15
78315;SHT31;67569;52.080;4.662;2023-02-11T01:47:36;7.13;84.17
78315;SHT31;67569;52.080;4.662;2023-02-11T01:50:20;7.12;84.23
78315;SHT31;67569;52.080;4.662;2023-02-11T01:53:04;7.10;84.25
78315;SHT31;67569;52.080;4.662;2023-02-11T01:56:07;7.10;84.29
78315;SHT31;67569;52.080;4.662;2023-02-11T01:59:12;7.05;84.42
78315;SHT31;67569;52.080;4.662;2023-02-11T02:01:58;7.00;84.51
78315;SHT31;67569;52.080;4.662;2023-02-11T02:04:49;7.00;84.54
78315;SHT31;67569;52.080;4.662;2023-02-11T02:07:38;7.00;84.37
78315;SHT31;67569;52.080;4.662;2023-02-11T02:10:24;6.99;84.38
78315;SHT31;67569;52.080;4.662;2023-02-11T02:13:09;6.97;84.42
78315;SHT31;67569;52.080;4.662;2023-02-11T02:15:54;6.97;84.51
78315;SHT31;67569;52.080;4.662;2023-02-11T02:35:42;6.85;84.29
78315;SHT31;67569;52.080;4.662;2023-02-11T02:38:49;6.84;84.26
78315;SHT31;67569;52.080;4.662;2023-02-11T02:41:34;6.78;84.23
78315;SHT31;67569;52.080;4.662;2023-02-11T02:44:19;6.77;84.38
78315;SHT31;67569;52.080;4.662;2023-02-11T02:47:03;6.71;84.49
78315;SHT31;67569;52.080;4.662;2023-02-11T02:49:47;6.68;84.70
78315;SHT31;67569;52.080;4.662;2023-02-11T03:01:05;6.63;84.95
78315;SHT31;67569;52.080;4.662;2023-02-11T03:09:33;6.55;85.28
78315;SHT31;67569;52.080;4.662;2023-02-11T03:12:20;6.52;85.52
78315;SHT31;67569;52.080;4.662;2023-02-11T03:15:05;6.47;85.69
78315;SHT31;67569;52.080;4.662;2023-02-11T03:17:53;6.47;85.68
78315;SHT31;67569;52.080;4.662;2023-02-11T03:20:39;6.42;85.69
78315;SHT31;67569;52.080;4.662;2023-02-11T03:26:33;6.38;86.03
78315;SHT31;67569;52.080;4.662;2023-02-11T03:34:56;6.34;86.16
78315;SHT31;67569;52.080;4.662;2023-02-11T03:37:49;6.34;86.01
78315;SHT31;67569;52.080;4.662;2023-02-11T03:40:35;6.33;85.92
78315;SHT31;67569;52.080;4.662;2023-02-11T03:43:21;6.29;86.05
78315;SHT31;67569;52.080;4.662;2023-02-11T03:46:08;6.26;86.28
78315;SHT31;67569;52.080;4.662;2023-02-11T03:48:58;6.26;86.37
78315;SHT31;67569;52.080;4.662;2023-02-11T03:51:43;6.24;86.50
78315;SHT31;67569;52.080;4.662;2023-02-11T03:54:28;6.21;86.43
78315;SHT31;67569;52.080;4.662;2023-02-11T03:57:13;6.21;86.65
78315;SHT31;67569;52.080;4.662;2023-02-11T03:59:57;6.21;86.42
78315;SHT31;67569;52.080;4.662;2023-02-11T04:02:45;6.21;86.74
78315;SHT31;67569;52.080;4.662;2023-02-11T04:05:29;6.17;86.89
78315;SHT31;67569;52.080;4.662;2023-02-11T04:08:13;6.13;86.87
78315;SHT31;67569;52.080;4.662;2023-02-11T04:10:57;6.13;86.96
78315;SHT31;67569;52.080;4.662;2023-02-11T04:13:41;6.16;87.12
78315;SHT31;67569;52.080;4.662;2023-02-11T04:16:25;6.13;87.45
78315;SHT31;67569;52.080;4.662;2023-02-11T04:19:09;6.14;87.82
78315;SHT31;67569;52.080;4.662;2023-02-11T04:21:53;6.11;88.06
78315;SHT31;67569;52.080;4.662;2023-02-11T04:24:37;6.13;88.35
78315;SHT31;67569;52.080;4.662;2023-02-11T04:27:21;6.14;88.35
78315;SHT31;67569;52.080;4.662;2023-02-11T04:30:14;6.13;88.54
78315;SHT31;67569;52.080;4.662;2023-02-11T04:32:58;6.14;88.87
78315;SHT31;67569;52.080;4.662;2023-02-11T04:35:45;6.13;88.84
78315;SHT31;67569;52.080;4.662;2023-02-11T04:38:29;6.17;88.83
78315;SHT31;67569;52.080;4.662;2023-02-11T04:41:13;6.20;88.80
78315;SHT31;67569;52.080;4.662;2023-02-11T04:43:57;6.19;88.85
78315;SHT31;67569;52.080;4.662;2023-02-11T04:46:41;6.19;88.85
78315;SHT31;67569;52.080;4.662;2023-02-11T04:49:25;6.19;88.82
78315;SHT31;67569;52.080;4.662;2023-02-11T04:52:09;6.17;88.96
78315;SHT31;67569;52.080;4.662;2023-02-11T04:54:53;6.14;88.92
78315;SHT31;67569;52.080;4.662;2023-02-11T04:57:37;6.16;88.75
78315;SHT31;67569;52.080;4.662;2023-02-11T05:00:21;6.19;88.83
78315;SHT31;67569;52.080;4.662;2023-02-11T05:03:05;6.19;88.92
78315;SHT31;67569;52.080;4.662;2023-02-11T05:05:49;6.19;89.05
78315;SHT31;67569;52.080;4.662;2023-02-11T05:08:34;6.24;89.07
78315;SHT31;67569;52.080;4.662;2023-02-11T05:11:19;6.24;89.27
78315;SHT31;67569;52.080;4.662;2023-02-11T05:14:04;6.24;89.17
78315;SHT31;67569;52.080;4.662;2023-02-11T05:16:48;6.29;89.41
78315;SHT31;67569;52.080;4.662;2023-02-11T05:19:32;6.27;89.25
78315;SHT31;67569;52.080;4.662;2023-02-11T05:22:16;6.27;89.25
78315;SHT31;67569;52.080;4.662;2023-02-11T05:25:00;6.29;89.17
78315;SHT31;67569;52.080;4.662;2023-02-11T05:27:44;6.30;89.08
78315;SHT31;67569;52.080;4.662;2023-02-11T05:30:28;6.30;89.37
78315;SHT31;67569;52.080;4.662;2023-02-11T05:33:15;6.31;89.22
78315;SHT31;67569;52.080;4.662;2023-02-11T05:35:59;6.34;89.05
78315;SHT31;67569;52.080;4.662;2023-02-11T05:38:44;6.34;89.07
78315;SHT31;67569;52.080;4.662;2023-02-11T05:41:28;6.34;89.24
78315;SHT31;67569;52.080;4.662;2023-02-11T05:44:12;6.34;89.21
78315;SHT31;67569;52.080;4.662;2023-02-11T05:46:57;6.34;89.16
78315;SHT31;67569;52.080;4.662;2023-02-11T05:49:41;6.36;89.29
78315;SHT31;67569;52.080;4.662;2023-02-11T05:52:25;6.33;89.41
78315;SHT31;67569;52.080;4.662;2023-02-11T05:55:09;6.31;89.43
78315;SHT31;67569;52.080;4.662;2023-02-11T05:57:53;6.36;89.53
78315;SHT31;67569;52.080;4.662;2023-02-11T06:00:37;6.33;89.46
78315;SHT31;67569;52.080;4.662;2023-02-11T06:03:21;6.37;89.44
78315;SHT31;67569;52.080;4.662;2023-02-11T06:06:08;6.38;89.50
78315;SHT31;67569;52.080;4.662;2023-02-11T06:09:01;6.37;89.31
78315;SHT31;67569;52.080;4.662;2023-02-11T06:11:45;6.41;89.19
78315;SHT31;67569;52.080;4.662;2023-02-11T06:14:30;6.42;89.17
78315;SHT31;67569;52.080;4.662;2023-02-11T06:17:15;6.42;89.14
78315;SHT31;67569;52.080;4.662;2023-02-11T06:19:59;6.44;89.17
78315;SHT31;67569;52.080;4.662;2023-02-11T06:22:43;6.47;89.23
78315;SHT31;67569;52.080;4.662;2023-02-11T06:25:27;6.50;89.01
78315;SHT31;67569;52.080;4.662;2023-02-11T06:28:11;6.48;89.23
78315;SHT31;67569;52.080;4.662;2023-02-11T06:30:56;6.50;89.24
78315;SHT31;67569;52.080;4.662;2023-02-11T06:33:42;6.48;89.24
78315;SHT31;67569;52.080;4.662;2023-02-11T06:36:26;6.52;89.07
78315;SHT31;67569;52.080;4.662;2023-02-11T06:39:11;6.52;89.39
78315;SHT31;67569;52.080;4.662;2023-02-11T06:41:55;6.50;89.41
78315;SHT31;67569;52.080;4.662;2023-02-11T06:44:39;6.54;89.56
78315;SHT31;67569;52.080;4.662;2023-02-11T06:47:23;6.51;89.53
78315;SHT31;67569;52.080;4.662;2023-02-11T06:50:07;6.54;89.60
78315;SHT31;67569;52.080;4.662;2023-02-11T06:52:51;6.55;89.76
78315;SHT31;67569;52.080;4.662;2023-02-11T06:55:36;6.55;89.83
78315;SHT31;67569;52.080;4.662;2023-02-11T06:58:19;6.58;89.78
78315;SHT31;67569;52.080;4.662;2023-02-11T07:01:04;6.61;89.86
78315;SHT31;67569;52.080;4.662;2023-02-11T07:03:51;6.61;89.63
78315;SHT31;67569;52.080;4.662;2023-02-11T07:06:36;6.63;89.72
78315;SHT31;67569;52.080;4.662;2023-02-11T07:09:20;6.65;89.98
78315;SHT31;67569;52.080;4.662;2023-02-11T07:12:04;6.65;90.02
78315;SHT31;67569;52.080;4.662;2023-02-11T07:14:48;6.65;90.40
78315;SHT31;67569;52.080;4.662;2023-02-11T07:17:33;6.65;90.25
78315;SHT31;67569;52.080;4.662;2023-02-11T07:20:17;6.65;90.44
78315;SHT31;67569;52.080;4.662;2023-02-11T07:23:01;6.65;90.51
78315;SHT31;67569;52.080;4.662;2023-02-11T07:25:45;6.65;90.53
78315;SHT31;67569;52.080;4.662;2023-02-11T07:28:29;6.67;90.56
78315;SHT31;67569;52.080;4.662;2023-02-11T07:31:15;6.65;90.48
78315;SHT31;67569;52.080;4.662;2023-02-11T07:34:00;6.68;90.70
78315;SHT31;67569;52.080;4.662;2023-02-11T07:36:44;6.71;90.61
78315;SHT31;67569;52.080;4.662;2023-02-11T07:39:28;6.74;90.65
78315;SHT31;67569;52.080;4.662;2023-02-11T07:42:13;6.75;90.63
78315;SHT31;67569;52.080;4.662;2023-02-11T07:44:56;6.77;90.75
78315;SHT31;67569;52.080;4.662;2023-02-11T07:47:40;6.77;90.71
78315;SHT31;67569;52.080;4.662;2023-02-11T07:50:25;6.79;90.86
78315;SHT31;67569;52.080;4.662;2023-02-11T07:53:10;6.82;90.94
78315;SHT31;67569;52.080;4.662;2023-02-11T07:55:55;6.84;90.87
78315;SHT31;67569;52.080;4.662;2023-02-11T07:58:39;6.88;90.93
78315;SHT31;67569;52.080;4.662;2023-02-11T08:01:25;6.89;90.88
78315;SHT31;67569;52.080;4.662;2023-02-11T08:04:10;6.91;90.99
78315;SHT31;67569;52.080;4.662;2023-02-11T08:06:54;6.93;91.15
78315;SHT31;67569;52.080;4.662;2023-02-11T08:09:39;6.99;90.98
78315;SHT31;67569;52.080;4.662;2023-02-11T08:12:23;7.00;91.30
78315;SHT31;67569;52.080;4.662;2023-02-11T08:15:07;7.03;91.28
78315;SHT31;67569;52.080;4.662;2023-02-11T08:17:51;7.07;91.27
78315;SHT31;67569;52.080;4.662;2023-02-11T08:20:35;7.09;91.50
78315;SHT31;67569;52.080;4.662;2023-02-11T08:23:19;7.13;91.51
78315;SHT31;67569;52.080;4.662;2023-02-11T08:26:04;7.16;91.29
78315;SHT31;67569;52.080;4.662;2023-02-11T08:28:49;7.22;91.02
78315;SHT31;67569;52.080;4.662;2023-02-11T08:31:34;7.23;91.19
78315;SHT31;67569;52.080;4.662;2023-02-11T08:34:19;7.28;91.16
78315;SHT31;67569;52.080;4.662;2023-02-11T08:37:03;7.30;91.06
78315;SHT31;67569;52.080;4.662;2023-02-11T08:39:47;7.34;90.97
78315;SHT31;67569;52.080;4.662;2023-02-11T08:42:31;7.37;90.93
78315;SHT31;67569;52.080;4.662;2023-02-11T08:45:15;7.38;91.13
78315;SHT31;67569;52.080;4.662;2023-02-11T08:47:59;7.42;90.98
78315;SHT31;67569;52.080;4.662;2023-02-11T08:50:43;7.44;90.94
78315;SHT31;67569;52.080;4.662;2023-02-11T08:53:27;7.48;90.87
78315;SHT31;67569;52.080;4.662;2023-02-11T08:56:12;7.54;90.87
78315;SHT31;67569;52.080;4.662;2023-02-11T08:58:56;7.55;91.08
78315;SHT31;67569;52.080;4.662;2023-02-11T09:01:40;7.61;91.07
78315;SHT31;67569;52.080;4.662;2023-02-11T09:04:24;7.64;91.09
78315;SHT31;67569;52.080;4.662;2023-02-11T09:07:08;7.70;90.74
78315;SHT31;67569;52.080;4.662;2023-02-11T09:09:52;7.74;90.89
78315;SHT31;67569;52.080;4.662;2023-02-11T09:12:36;7.78;90.96
78315;SHT31;67569;52.080;4.662;2023-02-11T09:15:20;7.85;90.74
78315;SHT31;67569;52.080;4.662;2023-02-11T09:18:05;7.92;90.52
78315;SHT31;67569;52.080;4.662;2023-02-11T09:20:49;7.98;90.39
78315;SHT31;67569;52.080;4.662;2023-02-11T09:23:33;8.03;90.23
78315;SHT31;67569;52.080;4.662;2023-02-11T09:26:18;8.07;89.92
78315;SHT31;67569;52.080;4.662;2023-02-11T09:29:03;8.16;89.58
78315;SHT31;67569;52.080;4.662;2023-02-11T09:31:47;8.19;89.26
78315;SHT31;67569;52.080;4.662;2023-02-11T09:34:32;8.23;89.26
78315;SHT31;67569;52.080;4.662;2023-02-11T09:37:16;8.29;89.08
78315;SHT31;67569;52.080;4.662;2023-02-11T09:40:00;8.36;88.85
78315;SHT31;67569;52.080;4.662;2023-02-11T09:45:44;8.34;88.61
78315;SHT31;67569;52.080;4.662;2023-02-11T09:48:28;8.36;88.50
78315;SHT31;67569;52.080;4.662;2023-02-11T09:54:57;8.39;88.43
78315;SHT31;67569;52.080;4.662;2023-02-11T09:57:14;8.40;88.30
78315;SHT31;67569;52.080;4.662;2023-02-11T10:00:00;8.41;88.26
78315;SHT31;67569;52.080;4.662;2023-02-11T10:17:34;8.77;87.10
78315;SHT31;67569;52.080;4.662;2023-02-11T10:23:09;8.85;86.38
78315;SHT31;67569;52.080;4.662;2023-02-11T10:25:56;8.91;86.33
78315;SHT31;67569;52.080;4.662;2023-02-11T10:28:43;8.95;85.87
78315;SHT31;67569;52.080;4.662;2023-02-11T10:31:32;8.99;85.55
78315;SHT31;67569;52.080;4.662;2023-02-11T10:34:16;9.08;85.49
78315;SHT31;67569;52.080;4.662;2023-02-11T10:37:00;9.11;85.18
78315;SHT31;67569;52.080;4.662;2023-02-11T10:39:44;9.11;84.79
78315;SHT31;67569;52.080;4.662;2023-02-11T10:42:28;9.19;84.87
78315;SHT31;67569;52.080;4.662;2023-02-11T10:48:34;9.27;84.79
78315;SHT31;67569;52.080;4.662;2023-02-11T10:56:47;9.32;84.28
78315;SHT31;67569;52.080;4.662;2023-02-11T10:59:38;9.32;84.21
78315;SHT31;67569;52.080;4.662;2023-02-11T11:02:25;9.30;83.87
78315;SHT31;67569;52.080;4.662;2023-02-11T11:05:15;9.36;83.92
78315;SHT31;67569;52.080;4.662;2023-02-11T11:08:04;9.35;83.77
78315;SHT31;67569;52.080;4.662;2023-02-11T11:11:05;9.37;83.94
78315;SHT31;67569;52.080;4.662;2023-02-11T11:13:54;9.39;83.89
78315;SHT31;67569;52.080;4.662;2023-02-11T11:16:40;9.42;83.83
78315;SHT31;67569;52.080;4.662;2023-02-11T11:19:35;9.37;83.65
78315;SHT31;67569;52.080;4.662;2023-02-11T11:22:21;9.40;83.67
78315;SHT31;67569;52.080;4.662;2023-02-11T11:25:19;9.40;83.39
